createdAt,value
2018-01-13T00:01:52.243Z,41.07
2018-01-13T00:04:17.995Z,43.90
2018-01-13T00:06:43.754Z,43.97
2018-01-13T00:09:09.495Z,45.10
2018-01-13T00:11:35.231Z,44.83
2018-01-13T00:14:00.981Z,42.33
2018-01-13T00:16:26.731Z,47.47
2018-01-13T00:18:52.481Z,40.33
2018-01-13T00:21:18.234Z,48.53
2018-01-13T00:23:43.986Z,45.00
2018-01-13T00:26:09.738Z,49.63
2018-01-13T00:28:35.494Z,42.87
2018-01-13T00:31:01.247Z,46.70
2018-01-13T00:33:26.994Z,46.77
2018-01-13T00:35:52.746Z,47.67
2018-01-13T00:38:18.502Z,43.03
2018-01-13T00:40:44.245Z,44.07
2018-01-13T00:43:10.011Z,49.47
2018-01-13T00:45:35.762Z,49.30
2018-01-13T00:48:01.508Z,47.80
2018-01-13T00:50:27.258Z,50.03
2018-01-13T00:52:52.999Z,50.70
2018-01-13T00:55:18.770Z,49.50
2018-01-13T00:57:44.506Z,45.87
2018-01-13T01:00:10.251Z,45.83
2018-01-13T01:02:36.002Z,48.40
2018-01-13T01:05:01.758Z,45.47
2018-01-13T01:07:27.490Z,45.97
2018-01-13T01:09:53.474Z,43.70
2018-01-13T01:12:19.211Z,45.97
2018-01-13T01:14:44.950Z,44.27
2018-01-13T01:17:10.683Z,43.20
2018-01-13T01:19:36.438Z,48.10
2018-01-13T01:22:02.171Z,47.87
2018-01-13T01:24:27.918Z,47.97
2018-01-13T01:26:53.671Z,49.70
2018-01-13T01:29:19.418Z,47.50
2018-01-13T01:31:45.166Z,46.17
2018-01-13T01:34:10.917Z,51.80
2018-01-13T01:36:37.314Z,46.53
2018-01-13T01:39:03.336Z,43.97
2018-01-13T01:41:29.366Z,48.97
2018-01-13T01:43:55.119Z,47.38
2018-01-13T01:46:20.891Z,47.87
2018-01-13T01:48:46.631Z,51.23
2018-01-13T01:51:12.386Z,48.10
2018-01-13T01:53:38.121Z,50.87
2018-01-13T01:56:04.486Z,50.70
2018-01-13T01:58:30.224Z,52.17
2018-01-13T02:00:56.239Z,49.47
2018-01-13T02:03:22.002Z,52.28
2018-01-13T02:05:47.755Z,50.13
2018-01-13T02:08:13.493Z,51.47
2018-01-13T02:10:39.222Z,52.67
2018-01-13T02:13:04.975Z,51.73
2018-01-13T02:15:30.721Z,52.87
2018-01-13T02:17:56.470Z,52.00
2018-01-13T02:20:23.459Z,53.03
2018-01-13T02:22:49.803Z,52.47
2018-01-13T02:25:15.860Z,50.28
2018-01-13T02:27:41.603Z,52.50
2018-01-13T02:30:07.351Z,53.60
2018-01-13T02:32:33.402Z,53.10
2018-01-13T02:34:59.434Z,51.25
2018-01-13T02:37:25.184Z,52.78
2018-01-13T02:39:50.934Z,52.23
2018-01-13T02:42:16.682Z,51.17
2018-01-13T02:44:42.457Z,51.17
2018-01-13T02:47:08.462Z,53.90
2018-01-13T02:49:34.244Z,51.03
2018-01-13T02:52:00.000Z,56.80
2018-01-13T02:54:25.774Z,54.17
2018-01-13T02:56:51.524Z,49.67
2018-01-13T02:59:17.291Z,57.17
2018-01-13T03:01:43.046Z,48.07
2018-01-13T03:04:08.813Z,55.83
2018-01-13T03:06:34.578Z,54.30
2018-01-13T03:09:00.335Z,61.60
2018-01-13T03:11:26.094Z,56.27
2018-01-13T03:13:51.856Z,61.33
2018-01-13T03:16:17.602Z,59.20
2018-01-13T03:18:43.348Z,64.50
2018-01-13T03:21:16.227Z,60.80
2018-01-13T03:23:41.978Z,61.63
2018-01-13T03:26:07.739Z,59.07
2018-01-13T03:28:33.491Z,60.00
2018-01-13T03:30:59.270Z,61.97
2018-01-13T03:33:25.021Z,58.37
2018-01-13T03:35:50.773Z,61.63
2018-01-13T03:38:16.528Z,56.07
2018-01-13T03:40:42.303Z,61.07
2018-01-13T03:43:08.057Z,59.00
2018-01-13T03:45:33.810Z,64.37
2018-01-13T03:47:59.563Z,62.77
2018-01-13T03:50:25.306Z,56.13
2018-01-13T03:52:51.039Z,61.20
2018-01-13T03:55:16.786Z,60.73
2018-01-13T03:57:42.558Z,52.80
2018-01-13T04:00:08.307Z,55.03
2018-01-13T04:02:34.055Z,53.30
2018-01-13T04:04:59.806Z,50.47
2018-01-13T04:07:25.566Z,48.73
2018-01-13T04:09:51.301Z,45.53
2018-01-13T04:12:17.811Z,45.22
2018-01-13T04:14:43.554Z,47.17
2018-01-13T04:17:09.307Z,49.13
2018-01-13T04:19:35.039Z,45.67
2018-01-13T04:22:00.790Z,47.70
2018-01-13T04:24:26.553Z,48.47
2018-01-13T04:26:52.305Z,49.70
2018-01-13T04:29:18.055Z,51.27
2018-01-13T04:31:43.827Z,49.53
2018-01-13T04:34:09.566Z,48.47
2018-01-13T04:36:35.320Z,46.40
2018-01-13T04:39:01.062Z,49.90
2018-01-13T04:41:26.823Z,51.90
2018-01-13T04:43:52.559Z,48.30
2018-01-13T04:46:18.313Z,50.90
2018-01-13T04:48:44.066Z,51.77
2018-01-13T04:51:09.830Z,55.13
2018-01-13T04:53:35.573Z,49.77
2018-01-13T04:56:01.324Z,51.90
2018-01-13T04:58:27.058Z,49.03
2018-01-13T05:00:52.808Z,50.13
2018-01-13T05:03:18.551Z,51.77
2018-01-13T05:05:44.298Z,52.17
2018-01-13T05:08:10.050Z,57.23
2018-01-13T05:10:35.826Z,50.30
2018-01-13T05:13:01.570Z,55.77
2018-01-13T05:15:27.319Z,54.37
2018-01-13T05:17:53.088Z,56.00
2018-01-13T05:20:18.903Z,62.90
2018-01-13T05:22:44.646Z,52.43
2018-01-13T05:25:10.388Z,61.77
2018-01-13T05:27:36.150Z,62.57
2018-01-13T05:30:01.905Z,55.33
2018-01-13T05:32:27.656Z,68.47
2018-01-13T05:34:53.452Z,61.80
2018-01-13T05:37:19.175Z,62.83
2018-01-13T05:39:44.913Z,58.53
2018-01-13T05:42:10.659Z,66.83
2018-01-13T05:44:36.406Z,72.43
2018-01-13T05:47:02.178Z,72.10
2018-01-13T05:49:27.928Z,70.50
2018-01-13T05:51:53.685Z,72.43
2018-01-13T05:54:19.430Z,79.30
2018-01-13T05:56:45.186Z,78.30
2018-01-13T05:59:10.951Z,74.20
2018-01-13T06:01:36.709Z,86.57
2018-01-13T06:04:02.483Z,87.23
2018-01-13T06:06:28.236Z,87.13
2018-01-13T06:08:53.974Z,99.80
2018-01-13T06:11:19.727Z,90.30
2018-01-13T06:13:45.489Z,94.17
2018-01-13T06:16:11.235Z,100.93
2018-01-13T06:18:37.000Z,123.40
2018-01-13T06:21:02.736Z,100.17
2018-01-13T06:23:28.498Z,111.90
2018-01-13T06:25:54.235Z,94.93
2018-01-13T06:28:19.989Z,110.63
2018-01-13T06:30:45.731Z,105.33
2018-01-13T06:33:11.491Z,102.70
2018-01-13T06:35:37.238Z,89.13
2018-01-13T06:38:03.018Z,86.17
2018-01-13T06:40:28.754Z,87.23
2018-01-13T06:42:54.494Z,87.70
2018-01-13T06:45:20.231Z,91.30
2018-01-13T06:47:46.014Z,86.57
2018-01-13T06:50:11.757Z,84.00
2018-01-13T06:52:37.519Z,85.63
2018-01-13T06:55:03.265Z,86.57
2018-01-13T06:57:29.015Z,86.20
2018-01-13T06:59:54.766Z,83.17
2018-01-13T07:02:20.507Z,82.30
2018-01-13T07:04:46.258Z,87.23
2018-01-13T07:07:11.995Z,67.50
2018-01-13T07:09:38.737Z,81.77
2018-01-13T07:12:04.484Z,79.85
2018-01-13T07:14:30.235Z,72.33
2018-01-13T07:16:55.986Z,74.87
2018-01-13T07:19:21.742Z,81.23
2018-01-13T07:21:47.482Z,75.40
2018-01-13T07:24:13.227Z,64.30
2018-01-13T07:26:38.979Z,67.63
2018-01-13T07:29:04.739Z,73.27
2018-01-13T07:31:30.478Z,75.50
2018-01-13T07:33:56.231Z,74.77
2018-01-13T07:36:21.994Z,77.73
2018-01-13T07:38:47.741Z,85.30
2018-01-13T07:41:13.483Z,79.53
2018-01-13T07:43:39.255Z,81.33
2018-01-13T07:46:04.990Z,79.50
2018-01-13T07:48:30.738Z,78.87
2018-01-13T07:50:56.495Z,84.60
2018-01-13T07:53:22.230Z,84.37
2018-01-13T07:55:47.985Z,79.47
2018-01-13T07:58:13.731Z,83.93
2018-01-13T08:00:39.492Z,80.17
2018-01-13T08:03:05.248Z,85.27
2018-01-13T08:05:30.997Z,80.23
2018-01-13T08:07:56.742Z,81.60
2018-01-13T08:10:22.499Z,88.50
2018-01-13T08:12:48.238Z,81.33
2018-01-13T08:15:13.987Z,87.97
2018-01-13T08:17:39.739Z,82.70
2018-01-13T08:20:05.495Z,92.83
2018-01-13T08:22:31.246Z,82.20
2018-01-13T08:24:57.001Z,93.40
2018-01-13T08:27:22.755Z,98.27
2018-01-13T08:29:48.527Z,82.57
2018-01-13T08:32:14.266Z,84.97
2018-01-13T08:34:40.002Z,99.53
2018-01-13T08:37:05.763Z,97.63
2018-01-13T08:39:31.507Z,91.80
2018-01-13T08:41:57.256Z,88.47
2018-01-13T08:44:22.992Z,90.93
2018-01-13T08:46:48.766Z,91.30
2018-01-13T08:49:14.503Z,79.93
2018-01-13T08:51:40.247Z,92.73
2018-01-13T08:54:05.996Z,90.53
2018-01-13T08:56:31.764Z,89.37
2018-01-13T08:58:57.527Z,97.33
2018-01-13T09:01:23.295Z,94.03
2018-01-13T09:03:49.043Z,90.67
2018-01-13T09:06:14.804Z,92.33
2018-01-13T09:08:40.554Z,91.03
2018-01-13T09:11:06.306Z,92.53
2018-01-13T09:13:32.058Z,89.23
2018-01-13T09:15:57.807Z,94.83
2018-01-13T09:18:23.552Z,92.13
2018-01-13T09:20:49.301Z,96.47
2018-01-13T09:23:15.071Z,96.27
2018-01-13T09:25:40.818Z,92.73
2018-01-13T09:28:06.575Z,90.77
2018-01-13T09:30:32.322Z,94.57
2018-01-13T09:32:58.084Z,96.33
2018-01-13T09:35:23.827Z,83.63
2018-01-13T09:37:49.584Z,83.63
2018-01-13T09:40:15.342Z,78.53
2018-01-13T09:42:41.091Z,74.07
2018-01-13T09:45:06.845Z,72.33
2018-01-13T09:47:32.608Z,74.43
2018-01-13T09:49:58.359Z,72.40
2018-01-13T09:52:24.116Z,74.10
2018-01-13T09:54:49.947Z,69.20
2018-01-13T09:57:15.698Z,77.90
2018-01-13T09:59:41.450Z,74.40
2018-01-13T10:02:07.208Z,79.57
2018-01-13T10:04:32.951Z,76.63
2018-01-13T10:06:58.727Z,80.53
2018-01-13T10:09:24.464Z,79.77
2018-01-13T10:11:50.199Z,80.30
2018-01-13T10:14:15.964Z,76.37
2018-01-13T10:16:41.724Z,71.10
2018-01-13T10:19:07.540Z,78.87
2018-01-13T10:21:33.303Z,79.93
2018-01-13T10:23:59.050Z,78.30
2018-01-13T10:26:24.806Z,78.63
2018-01-13T10:28:50.555Z,75.60
2018-01-13T10:31:17.299Z,80.63
2018-01-13T10:33:43.156Z,76.03
2018-01-13T10:36:08.888Z,80.30
2018-01-13T10:38:34.643Z,78.03
2018-01-13T10:41:00.708Z,78.73
2018-01-13T10:43:26.491Z,77.32
2018-01-13T10:45:52.501Z,78.90
2018-01-13T10:48:18.566Z,75.82
2018-01-13T10:50:44.306Z,79.03
2018-01-13T10:53:10.078Z,86.30
2018-01-13T10:55:35.821Z,73.93
2018-01-13T10:58:01.559Z,75.70
2018-01-13T11:00:27.390Z,70.77
2018-01-13T11:02:53.154Z,75.30
2018-01-13T11:05:19.228Z,72.80
2018-01-13T11:07:45.067Z,78.12
2018-01-13T11:10:12.027Z,74.83
2018-01-13T11:12:37.767Z,72.30
2018-01-13T11:15:03.550Z,74.03
2018-01-13T11:17:29.288Z,67.20
2018-01-13T11:19:55.031Z,66.00
2018-01-13T11:22:20.838Z,68.63
2018-01-13T11:24:46.707Z,69.53
2018-01-13T11:27:12.453Z,70.90
2018-01-13T11:29:38.211Z,67.40
2018-01-13T11:32:04.179Z,71.30
2018-01-13T11:34:29.994Z,74.13
2018-01-13T11:36:55.743Z,77.37
2018-01-13T11:39:21.506Z,66.00
2018-01-13T11:41:47.264Z,72.00
2018-01-13T11:44:13.011Z,73.83
2018-01-13T11:46:38.782Z,68.90
2018-01-13T11:49:04.527Z,68.17
2018-01-13T11:51:30.279Z,70.67
2018-01-13T11:53:56.149Z,73.97
2018-01-13T11:56:21.906Z,73.87
2018-01-13T11:58:47.653Z,79.97
2018-01-13T12:01:13.419Z,78.73
2018-01-13T12:03:39.175Z,79.43
2018-01-13T12:06:04.934Z,75.20
2018-01-13T12:08:30.663Z,73.03
2018-01-13T12:10:56.426Z,77.57
2018-01-13T12:13:22.188Z,76.10
2018-01-13T12:15:47.959Z,74.90
2018-01-13T12:18:13.711Z,83.03
2018-01-13T12:20:39.462Z,79.07
2018-01-13T12:23:05.221Z,75.10
2018-01-13T12:25:30.991Z,74.33
2018-01-13T12:27:56.776Z,74.43
2018-01-13T12:30:22.585Z,75.80
2018-01-13T12:32:48.333Z,74.57
2018-01-13T12:35:14.159Z,77.70
2018-01-13T12:37:39.853Z,75.07
2018-01-13T12:40:05.614Z,75.60
2018-01-13T12:42:31.415Z,73.33
2018-01-13T12:44:57.253Z,75.23
2018-01-13T12:47:23.079Z,68.67
2018-01-13T12:49:48.819Z,73.07
2018-01-13T12:52:14.567Z,72.30
2018-01-13T12:54:40.319Z,75.17
2018-01-13T12:57:06.077Z,70.83
2018-01-13T12:59:31.839Z,64.17
2018-01-13T13:01:57.603Z,66.77
2018-01-13T13:04:23.351Z,67.03
2018-01-13T13:06:49.143Z,69.17
2018-01-13T13:09:14.883Z,68.17
2018-01-13T13:11:40.607Z,70.20
2018-01-13T13:14:06.343Z,67.20
2018-01-13T13:16:32.086Z,67.57
2018-01-13T13:18:57.855Z,72.97
2018-01-13T13:21:23.603Z,64.90
2018-01-13T13:23:49.354Z,66.67
2018-01-13T13:26:15.107Z,63.43
2018-01-13T13:28:40.863Z,65.50
2018-01-13T13:31:06.629Z,63.57
2018-01-13T13:33:32.443Z,64.40
2018-01-13T13:35:58.247Z,65.83
2018-01-13T13:38:24.014Z,61.40
2018-01-13T13:40:49.791Z,62.63
2018-01-13T13:43:22.508Z,58.97
2018-01-13T13:45:48.263Z,59.40
2018-01-13T13:48:14.113Z,56.10
2018-01-13T13:50:39.940Z,57.13
2018-01-13T13:53:05.694Z,54.87
2018-01-13T13:55:31.446Z,53.57
2018-01-13T13:57:57.195Z,51.97
2018-01-13T14:00:22.971Z,56.53
2018-01-13T14:02:48.714Z,53.20
2018-01-13T14:05:14.467Z,49.63
2018-01-13T14:07:40.204Z,53.93
2018-01-13T14:10:05.960Z,52.87
2018-01-13T14:12:31.722Z,53.07
2018-01-13T14:14:58.028Z,46.87
2018-01-13T14:17:23.246Z,45.30
2018-01-13T14:19:49.003Z,43.13
2018-01-13T14:22:14.748Z,42.20
2018-01-13T14:24:40.509Z,42.47
2018-01-13T14:27:06.255Z,45.07
2018-01-13T14:29:32.051Z,40.90
2018-01-13T14:31:57.843Z,39.93
2018-01-13T14:34:23.586Z,42.77
2018-01-13T14:36:49.343Z,42.97
2018-01-13T14:39:15.143Z,39.33
2018-01-13T14:41:40.887Z,42.10
2018-01-13T14:44:06.644Z,41.23
2018-01-13T14:46:32.395Z,40.53
2018-01-13T14:48:58.155Z,39.40
2018-01-13T14:51:23.977Z,37.20
2018-01-13T14:53:49.681Z,33.73
2018-01-13T14:56:15.439Z,31.87
2018-01-13T14:58:41.170Z,31.97
2018-01-13T15:01:06.915Z,34.93
2018-01-13T15:03:32.659Z,37.10
2018-01-13T15:05:58.412Z,33.67
2018-01-13T15:08:24.154Z,33.33
2018-01-13T15:10:49.907Z,32.73
2018-01-13T15:13:15.664Z,33.67
2018-01-13T15:15:41.426Z,33.60
2018-01-13T15:18:07.180Z,35.37
2018-01-13T15:20:32.935Z,30.60
2018-01-13T15:22:58.699Z,30.07
2018-01-13T15:25:24.451Z,30.40
2018-01-13T15:27:50.205Z,33.30
2018-01-13T15:30:15.956Z,29.00
2018-01-13T15:32:41.719Z,27.87
2018-01-13T15:35:07.472Z,28.33
2018-01-13T15:37:33.241Z,28.33
2018-01-13T15:39:59.003Z,28.37
2018-01-13T15:42:24.772Z,27.77
2018-01-13T15:44:50.525Z,28.17
2018-01-13T15:47:16.287Z,26.03
2018-01-13T15:49:42.039Z,25.60
2018-01-13T15:52:07.802Z,24.87
2018-01-13T15:54:33.555Z,26.67
2018-01-13T15:56:59.321Z,25.40
2018-01-13T15:59:25.076Z,26.27
2018-01-13T16:01:50.826Z,26.83
2018-01-13T16:04:16.576Z,26.50
2018-01-13T16:06:42.332Z,26.70
2018-01-13T16:09:08.093Z,26.87
2018-01-13T16:11:33.850Z,24.70
2018-01-13T16:13:59.599Z,25.63
2018-01-13T16:16:25.352Z,25.23
2018-01-13T16:18:51.108Z,26.17
2018-01-13T16:21:16.839Z,22.50
2018-01-13T16:23:42.635Z,25.67
2018-01-13T16:26:08.437Z,24.37
2018-01-13T16:28:34.195Z,23.93
2018-01-13T16:30:59.951Z,23.13
2018-01-13T16:33:25.747Z,22.03
2018-01-13T16:35:51.480Z,23.10
2018-01-13T16:38:17.230Z,23.27
2018-01-13T16:40:42.985Z,23.13
2018-01-13T16:43:08.778Z,22.33
2018-01-13T16:45:34.514Z,21.83
2018-01-13T16:48:00.286Z,20.70
2018-01-13T16:50:26.034Z,21.23
2018-01-13T16:52:51.787Z,21.17
2018-01-13T16:55:17.517Z,22.87
2018-01-13T16:57:43.315Z,22.60
2018-01-13T17:00:09.093Z,22.00
2018-01-13T17:02:34.896Z,22.17
2018-01-13T17:05:00.663Z,23.07
2018-01-13T17:07:26.415Z,24.23
2018-01-13T17:09:52.166Z,23.50
2018-01-13T17:12:17.915Z,24.87
2018-01-13T17:14:43.679Z,23.30
2018-01-13T17:17:09.422Z,23.90
2018-01-13T17:19:35.195Z,22.93
2018-01-13T17:22:00.931Z,24.13
2018-01-13T17:24:26.675Z,18.97
2018-01-13T17:26:52.428Z,17.73
2018-01-13T17:29:18.176Z,19.73
2018-01-13T17:31:43.922Z,21.70
2018-01-13T17:34:09.684Z,24.03
2018-01-13T17:36:35.428Z,22.03
2018-01-13T17:39:01.183Z,22.13
2018-01-13T17:41:26.945Z,22.10
2018-01-13T17:43:52.680Z,20.97
2018-01-13T17:46:18.414Z,21.60
2018-01-13T17:48:44.203Z,20.50
2018-01-13T17:51:09.972Z,23.50
2018-01-13T17:53:35.736Z,23.53
2018-01-13T17:56:01.496Z,21.60
2018-01-13T17:58:27.251Z,19.20
2018-01-13T18:00:53.006Z,18.37
2018-01-13T18:03:18.758Z,20.00
2018-01-13T18:05:44.514Z,18.30
2018-01-13T18:08:10.258Z,18.70
2018-01-13T18:10:36.020Z,19.23
2018-01-13T18:13:01.769Z,19.07
2018-01-13T18:15:27.519Z,19.43
2018-01-13T18:17:53.258Z,18.53
2018-01-13T18:20:19.023Z,19.80
2018-01-13T18:22:44.786Z,20.97
2018-01-13T18:25:10.555Z,21.70
2018-01-13T18:27:36.311Z,20.80
2018-01-13T18:30:02.072Z,20.17
2018-01-13T18:32:27.834Z,19.97
2018-01-13T18:34:53.602Z,19.67
2018-01-13T18:37:19.363Z,21.90
2018-01-13T18:39:45.115Z,20.70
2018-01-13T18:42:10.875Z,19.93
2018-01-13T18:44:36.674Z,19.50
2018-01-13T18:47:02.430Z,21.40
2018-01-13T18:49:28.186Z,22.60
2018-01-13T18:51:53.947Z,21.13
2018-01-13T18:54:19.698Z,20.60
2018-01-13T18:56:45.446Z,20.57
2018-01-13T18:59:11.204Z,20.47
2018-01-13T19:01:36.982Z,20.63
2018-01-13T19:04:02.727Z,21.97
2018-01-13T19:06:28.496Z,20.90
2018-01-13T19:08:54.230Z,20.67
2018-01-13T19:11:19.975Z,23.57
2018-01-13T19:13:45.715Z,21.03
2018-01-13T19:16:11.478Z,22.50
2018-01-13T19:18:37.234Z,23.30
2018-01-13T19:21:02.990Z,20.77
2018-01-13T19:23:28.749Z,21.60
2018-01-13T19:25:54.487Z,20.67
2018-01-13T19:28:20.246Z,21.10
2018-01-13T19:30:46.008Z,20.97
2018-01-13T19:33:11.777Z,20.87
2018-01-13T19:35:37.518Z,18.00
2018-01-13T19:38:03.272Z,20.47
2018-01-13T19:40:29.022Z,20.37
2018-01-13T19:42:54.766Z,19.50
2018-01-13T19:45:20.518Z,19.57
2018-01-13T19:47:46.280Z,19.27
2018-01-13T19:50:12.034Z,19.43
2018-01-13T19:52:37.795Z,19.47
2018-01-13T19:55:03.538Z,18.40
2018-01-13T19:57:29.308Z,18.53
2018-01-13T19:59:55.042Z,20.13
2018-01-13T20:02:20.788Z,19.00
2018-01-13T20:04:46.538Z,21.27
2018-01-13T20:07:12.281Z,21.23
2018-01-13T20:09:38.035Z,20.00
2018-01-13T20:12:03.791Z,19.40
2018-01-13T20:14:29.648Z,19.10
2018-01-13T20:16:55.396Z,20.43
2018-01-13T20:19:21.161Z,18.47
2018-01-13T20:21:46.907Z,18.60
2018-01-13T20:24:12.746Z,18.67
2018-01-13T20:26:38.865Z,19.43
2018-01-13T20:29:04.678Z,19.25
2018-01-13T20:31:30.426Z,20.87
2018-01-13T20:33:56.246Z,21.20
2018-01-13T20:36:21.995Z,19.03
2018-01-13T20:38:47.759Z,18.57
2018-01-13T20:41:13.818Z,20.63
2018-01-13T20:43:39.579Z,22.62
2018-01-13T20:46:05.616Z,20.33
2018-01-13T20:48:31.376Z,17.55
2018-01-13T20:50:57.130Z,21.30
2018-01-13T20:53:22.883Z,19.33
2018-01-13T20:55:48.639Z,18.80
2018-01-13T20:58:14.395Z,19.27
2018-01-13T21:00:40.157Z,19.77
2018-01-13T21:03:05.898Z,19.13
2018-01-13T21:05:31.668Z,21.37
2018-01-13T21:07:57.415Z,20.13
2018-01-13T21:10:23.243Z,19.97
2018-01-13T21:12:48.947Z,20.17
2018-01-13T21:15:14.713Z,20.67
2018-01-13T21:17:40.455Z,22.10
2018-01-13T21:20:06.208Z,21.30
2018-01-13T21:22:31.943Z,21.37
2018-01-13T21:24:57.751Z,20.80
2018-01-13T21:27:23.459Z,19.60
2018-01-13T21:29:49.319Z,21.00
2018-01-13T21:32:15.082Z,20.50
2018-01-13T21:34:40.878Z,19.37
2018-01-13T21:37:06.614Z,18.40
2018-01-13T21:39:32.375Z,16.83
2018-01-13T21:41:58.127Z,16.27
2018-01-13T21:44:23.894Z,18.27
2018-01-13T21:46:49.647Z,15.53
2018-01-13T21:49:15.404Z,16.43
2018-01-13T21:51:41.167Z,16.60
2018-01-13T21:54:06.918Z,18.60
2018-01-13T21:56:32.676Z,19.80
2018-01-13T21:58:58.418Z,17.87
2018-01-13T22:01:24.182Z,17.83
2018-01-13T22:03:50.497Z,17.47
2018-01-13T22:06:16.275Z,16.30
2018-01-13T22:08:42.031Z,15.83
2018-01-13T22:11:07.841Z,17.23
2018-01-13T22:13:33.574Z,22.50
2018-01-13T22:15:59.318Z,22.70
2018-01-13T22:18:25.124Z,18.37
2018-01-13T22:20:50.879Z,16.67
2018-01-13T22:23:16.639Z,16.30
2018-01-13T22:25:42.395Z,15.57
2018-01-13T22:28:08.134Z,16.10
2018-01-13T22:30:33.881Z,15.00
2018-01-13T22:32:59.642Z,13.53
2018-01-13T22:35:25.388Z,14.53
2018-01-13T22:37:51.143Z,14.80
2018-01-13T22:40:16.902Z,14.70
2018-01-13T22:42:42.678Z,15.00
2018-01-13T22:45:08.431Z,14.90
2018-01-13T22:47:34.199Z,14.67
2018-01-13T22:49:59.939Z,15.27
2018-01-13T22:52:25.701Z,15.30
2018-01-13T22:54:51.454Z,15.87
2018-01-13T22:57:17.209Z,14.50
2018-01-13T22:59:42.980Z,15.80
2018-01-13T23:02:08.719Z,13.80
2018-01-13T23:04:34.460Z,14.67
2018-01-13T23:07:00.236Z,13.97
2018-01-13T23:09:25.971Z,14.30
2018-01-13T23:11:51.719Z,14.53
2018-01-13T23:14:17.478Z,14.73
2018-01-13T23:16:43.226Z,14.70
2018-01-13T23:19:08.982Z,15.50
2018-01-13T23:21:34.740Z,14.00
2018-01-13T23:24:00.495Z,14.97
2018-01-13T23:26:26.233Z,14.80
2018-01-13T23:28:51.988Z,14.83
2018-01-13T23:31:17.733Z,15.50
2018-01-13T23:33:43.487Z,14.60
2018-01-13T23:36:09.224Z,16.27
2018-01-13T23:38:34.982Z,14.80
2018-01-13T23:41:00.730Z,13.33
2018-01-13T23:43:26.491Z,14.70
2018-01-13T23:45:52.258Z,13.67
2018-01-13T23:48:18.052Z,14.47
2018-01-13T23:50:43.802Z,13.00
2018-01-13T23:53:09.538Z,15.30
2018-01-13T23:55:35.309Z,13.60
2018-01-13T23:58:01.080Z,13.70
